Time;durP1;ratioP1;P1;durP2;ratioP2;P2;SDS_P1;SDS_P2;PMS_P1;PMS_P2;Temp;Humidity;BMP_temperature;BMP_pressure;BME280_temperature;BME280_humidity;BME280_pressure;Samples;Min_cycle;Max_cycle;Signal;HPM_P1;HPM_P2
2023/03/05 00:02:09;;;;;;;3.93;2.63;;;;;;;;;;5085705;28;20214;-68
2023/03/05 00:04:36;;;;;;;4.17;3.40;;;;;;;;;;5087203;28;20198;-69
2023/03/05 00:07:04;;;;;;;3.57;3.23;;;;;;;;;;5086495;28;20230;-69
2023/03/05 00:09:32;;;;;;;3.40;3.10;;;;;;;;;;5086508;28;20293;-69
2023/03/05 00:11:59;;;;;;;6.47;3.73;;;;;;;;;;5086738;28;20263;-69
2023/03/05 00:14:26;;;;;;;3.23;2.93;;;;;;;;;;5086948;28;20216;-68
2023/03/05 00:16:53;;;;;;;6.80;3.47;;;;;;;;;;5086916;28;20204;-69
2023/03/05 00:19:20;;;;;;;6.20;3.40;;;;;;;;;;5086204;28;20274;-69
2023/03/05 00:21:47;;;;;;;9.33;3.23;;;;;;;;;;5086869;28;20561;-69
2023/03/05 00:24:16;;;;;;;5.17;2.90;;;;;;;;;;5086898;28;20289;-69
2023/03/05 00:26:45;;;;;;;3.03;2.83;;;;;;;;;;5087135;28;20634;-70
2023/03/05 00:29:14;;;;;;;5.07;3.57;;;;;;;;;;5087048;28;20255;-69
2023/03/05 00:31:43;;;;;;;4.47;3.23;;;;;;;;;;5086807;28;20212;-69
2023/03/05 00:34:11;;;;;;;7.07;3.67;;;;;;;;;;5086924;28;20225;-69
2023/03/05 00:36:40;;;;;;;3.77;2.97;;;;;;;;;;5086680;28;20659;-70
2023/03/05 00:39:07;;;;;;;5.70;3.20;;;;;;;;;;5088853;28;20214;-69
2023/03/05 00:41:34;;;;;;;3.47;2.83;;;;;;;;;;5090907;28;20201;-69
2023/03/05 00:44:02;;;;;;;4.97;2.40;;;;;;;;;;5086031;28;20233;-69
2023/03/05 00:46:29;;;;;;;4.73;3.20;;;;;;;;;;5076160;28;20205;-69
2023/03/05 00:48:56;;;;;;;3.33;2.97;;;;;;;;;;5090392;28;20285;-69
2023/03/05 00:51:24;;;;;;;5.63;3.57;;;;;;;;;;5090598;28;20659;-69
2023/03/05 00:53:51;;;;;;;3.73;3.17;;;;;;;;;;5090482;28;20221;-70
2023/03/05 00:56:18;;;;;;;4.03;2.97;;;;;;;;;;5089518;28;20312;-69
2023/03/05 00:58:45;;;;;;;8.57;3.23;;;;;;;;;;5078338;28;20211;-69
2023/03/05 01:01:13;;;;;;;7.53;3.47;;;;;;;;;;5085972;28;20225;-69
2023/03/05 01:03:40;;;;;;;2.80;2.60;;;;;;;;;;5090259;28;20573;-69
2023/03/05 01:06:09;;;;;;;10.97;3.30;;;;;;;;;;5089663;28;20245;-69
2023/03/05 01:08:36;;;;;;;6.60;3.23;;;;;;;;;;5090106;28;20224;-69
2023/03/05 01:11:03;;;;;;;11.00;3.20;;;;;;;;;;5090042;28;20227;-69
2023/03/05 01:13:30;;;;;;;5.07;2.93;;;;;;;;;;5089924;28;20225;-69
2023/03/05 01:15:57;;;;;;;2.80;2.17;;;;;;;;;;5089352;28;20738;-69
2023/03/05 01:18:26;;;;;;;8.77;2.77;;;;;;;;;;5089794;28;20201;-69
2023/03/05 01:20:53;;;;;;;5.90;3.00;;;;;;;;;;5089772;28;20587;-69
2023/03/05 01:23:20;;;;;;;6.60;2.87;;;;;;;;;;5089747;28;20293;-69
2023/03/05 01:25:47;;;;;;;5.17;2.50;;;;;;;;;;5089502;28;20239;-69
2023/03/05 01:28:14;;;;;;;10.73;3.20;;;;;;;;;;5089535;28;20209;-69
2023/03/05 01:30:41;;;;;;;8.73;2.43;;;;;;;;;;5089430;28;20294;-69
2023/03/05 01:33:08;;;;;;;4.47;2.83;;;;;;;;;;5089998;28;20631;-68
2023/03/05 01:35:36;;;;;;;4.17;2.37;;;;;;;;;;5089539;28;20255;-69
2023/03/05 01:38:03;;;;;;;3.87;2.77;;;;;;;;;;5088880;28;20220;-69
2023/03/05 01:40:31;;;;;;;4.93;2.00;;;;;;;;;;5089529;28;20265;-69
2023/03/05 01:42:59;;;;;;;4.67;2.37;;;;;;;;;;5089573;28;20224;-68
2023/03/05 01:45:27;;;;;;;2.37;2.20;;;;;;;;;;5089687;28;20209;-68
2023/03/05 01:47:54;;;;;;;2.10;1.97;;;;;;;;;;5088721;28;20213;-69
2023/03/05 01:50:23;;;;;;;4.07;2.37;;;;;;;;;;5089454;28;20282;-69
2023/03/05 01:52:53;;;;;;;4.53;2.20;;;;;;;;;;5088907;28;20221;-69
2023/03/05 01:55:22;;;;;;;3.03;1.57;;;;;;;;;;5089401;28;20227;-68
2023/03/05 01:57:52;;;;;;;2.20;2.03;;;;;;;;;;5087697;28;20204;-68
2023/03/05 02:00:20;;;;;;;2.57;2.13;;;;;;;;;;5084845;28;20212;-68
2023/03/05 02:02:49;;;;;;;2.57;2.20;;;;;;;;;;5085830;28;20262;-68
2023/03/05 02:05:18;;;;;;;15.90;2.90;;;;;;;;;;5088067;28;20299;-69
2023/03/05 02:07:45;;;;;;;2.80;2.20;;;;;;;;;;5084560;28;20246;-69
2023/03/05 02:10:18;;;;;;;2.30;2.07;;;;;;;;;;5088539;28;20220;-69
2023/03/05 02:12:45;;;;;;;4.33;2.00;;;;;;;;;;5087619;28;20301;-68
2023/03/05 02:15:13;;;;;;;3.40;3.10;;;;;;;;;;5088604;28;20229;-68
2023/03/05 02:17:40;;;;;;;4.87;3.13;;;;;;;;;;5088200;28;20209;-67
2023/03/05 02:20:10;;;;;;;3.97;1.93;;;;;;;;;;5088456;28;20205;-67
2023/03/05 02:22:39;;;;;;;4.80;2.73;;;;;;;;;;5088309;28;20222;-68
2023/03/05 02:25:13;;;;;;;5.33;2.27;;;;;;;;;;5088190;28;20199;-68
2023/03/05 02:27:41;;;;;;;6.33;2.97;;;;;;;;;;5088306;28;20214;-68
2023/03/05 02:30:09;;;;;;;3.93;2.60;;;;;;;;;;5087760;28;20202;-68
2023/03/05 02:32:36;;;;;;;6.53;3.43;;;;;;;;;;5088040;28;20694;-68
2023/03/05 02:35:03;;;;;;;16.90;2.70;;;;;;;;;;5083628;28;20215;-68
2023/03/05 02:37:30;;;;;;;2.43;2.23;;;;;;;;;;5076742;28;20213;-68
2023/03/05 02:40:01;;;;;;;5.80;2.73;;;;;;;;;;5085901;28;20201;-68
2023/03/05 02:42:32;;;;;;;2.63;2.20;;;;;;;;;;5082692;28;20304;-68
2023/03/05 02:44:59;;;;;;;3.30;2.17;;;;;;;;;;5088678;28;20240;-68
2023/03/05 02:47:26;;;;;;;3.93;2.23;;;;;;;;;;5087923;28;20711;-68
2023/03/05 02:49:53;;;;;;;2.80;2.60;;;;;;;;;;5088192;28;20261;-68
2023/03/05 02:52:22;;;;;;;3.93;2.67;;;;;;;;;;5088628;28;20249;-68
2023/03/05 02:54:49;;;;;;;2.50;2.17;;;;;;;;;;5088264;28;20671;-68
2023/03/05 02:57:17;;;;;;;5.03;2.37;;;;;;;;;;5088307;28;20302;-68
2023/03/05 02:59:44;;;;;;;4.10;2.33;;;;;;;;;;5088323;28;20259;-68
2023/03/05 03:02:11;;;;;;;3.33;1.87;;;;;;;;;;5087361;28;20316;-68
2023/03/05 03:04:38;;;;;;;2.20;1.77;;;;;;;;;;5088279;28;20262;-68
2023/03/05 03:07:05;;;;;;;3.20;1.93;;;;;;;;;;5085596;28;20289;-68
2023/03/05 03:09:34;;;;;;;4.77;2.00;;;;;;;;;;5069858;28;20286;-68
2023/03/05 03:12:01;;;;;;;4.67;2.10;;;;;;;;;;5087418;28;20643;-68
2023/03/05 03:14:31;;;;;;;4.47;1.97;;;;;;;;;;5083983;28;20207;-67
2023/03/05 03:16:58;;;;;;;2.67;2.37;;;;;;;;;;5087053;28;20225;-68
2023/03/05 03:19:25;;;;;;;2.40;1.73;;;;;;;;;;5088123;28;20673;-68
2023/03/05 03:21:53;;;;;;;2.23;2.03;;;;;;;;;;5087399;28;20231;-68
2023/03/05 03:24:21;;;;;;;2.60;2.40;;;;;;;;;;5088076;28;20201;-67
2023/03/05 03:26:48;;;;;;;2.93;2.70;;;;;;;;;;5087832;28;20688;-68
2023/03/05 03:29:16;;;;;;;3.07;1.90;;;;;;;;;;5087490;28;20205;-68
2023/03/05 03:31:45;;;;;;;3.00;2.40;;;;;;;;;;5087352;28;20273;-67
2023/03/05 03:34:12;;;;;;;2.60;2.40;;;;;;;;;;5087650;28;20863;-68
2023/03/05 03:36:39;;;;;;;2.67;2.00;;;;;;;;;;5083386;28;20225;-68
2023/03/05 03:39:08;;;;;;;5.20;2.30;;;;;;;;;;5086429;28;20214;-67
2023/03/05 03:41:35;;;;;;;3.40;2.53;;;;;;;;;;5082097;28;20200;-69
2023/03/05 03:44:03;;;;;;;3.43;2.77;;;;;;;;;;5087245;28;20690;-68
2023/03/05 03:46:30;;;;;;;5.23;2.40;;;;;;;;;;5087641;28;20253;-68
2023/03/05 03:48:59;;;;;;;2.87;2.37;;;;;;;;;;5085732;28;20224;-68
2023/03/05 03:51:26;;;;;;;3.20;1.80;;;;;;;;;;5083559;28;20578;-67
2023/03/05 03:53:53;;;;;;;5.73;2.30;;;;;;;;;;5085427;28;20205;-68
2023/03/05 03:56:20;;;;;;;3.77;2.40;;;;;;;;;;5086975;28;20224;-68
2023/03/05 03:58:47;;;;;;;5.57;1.80;;;;;;;;;;5086540;28;20212;-68
2023/03/05 04:01:14;;;;;;;5.13;2.20;;;;;;;;;;5086538;28;20266;-68
2023/03/05 04:03:41;;;;;;;2.43;1.90;;;;;;;;;;5086717;28;20202;-68
2023/03/05 04:06:09;;;;;;;6.47;2.70;;;;;;;;;;5086582;28;20237;-68
2023/03/05 04:08:36;;;;;;;4.13;2.40;;;;;;;;;;5086456;28;20589;-68
2023/03/05 04:11:04;;;;;;;2.80;2.27;;;;;;;;;;5086694;28;20311;-68
2023/03/05 04:13:31;;;;;;;8.30;2.80;;;;;;;;;;5085811;28;20747;-68
2023/03/05 04:15:58;;;;;;;2.73;2.53;;;;;;;;;;5084580;28;20226;-68
2023/03/05 04:18:25;;;;;;;1.73;1.63;;;;;;;;;;5088429;28;20676;-68
2023/03/05 04:20:52;;;;;;;3.63;2.60;;;;;;;;;;5086130;28;20287;-68
2023/03/05 04:23:22;;;;;;;3.17;2.80;;;;;;;;;;5090239;28;20636;-68
2023/03/05 04:25:49;;;;;;;4.13;2.57;;;;;;;;;;5088245;28;20197;-68
2023/03/05 04:28:17;;;;;;;2.50;2.30;;;;;;;;;;5088264;28;20281;-67
2023/03/05 04:30:44;;;;;;;3.43;2.63;;;;;;;;;;5089792;28;20792;-67
2023/03/05 04:33:11;;;;;;;4.07;3.03;;;;;;;;;;5089594;28;20263;-68
2023/03/05 04:35:38;;;;;;;13.57;2.63;;;;;;;;;;5089682;28;20290;-68
2023/03/05 04:38:05;;;;;;;3.47;2.67;;;;;;;;;;5088234;28;20214;-67
2023/03/05 04:40:33;;;;;;;3.53;2.00;;;;;;;;;;5087712;28;20212;-67
2023/03/05 04:43:00;;;;;;;2.40;2.20;;;;;;;;;;5089595;28;20220;-67
2023/03/05 04:45:28;;;;;;;3.77;2.53;;;;;;;;;;5089277;28;20202;-67
2023/03/05 04:47:55;;;;;;;3.40;1.97;;;;;;;;;;5089746;28;20205;-67
2023/03/05 04:50:22;;;;;;;6.53;2.23;;;;;;;;;;5089973;28;20194;-67
2023/03/05 04:52:49;;;;;;;3.90;2.30;;;;;;;;;;5088761;28;20667;-67
2023/03/05 04:55:17;;;;;;;7.17;2.80;;;;;;;;;;5089500;28;20629;-67
2023/03/05 04:57:45;;;;;;;6.77;2.73;;;;;;;;;;5089352;28;20230;-68
2023/03/05 05:00:13;;;;;;;3.50;2.70;;;;;;;;;;5089190;28;20201;-67
2023/03/05 05:02:41;;;;;;;3.67;2.60;;;;;;;;;;5089086;28;20304;-67
2023/03/05 05:05:08;;;;;;;4.97;2.57;;;;;;;;;;5089136;28;20327;-67
2023/03/05 05:07:35;;;;;;;5.80;2.37;;;;;;;;;;5087545;28;20718;-67
2023/03/05 05:10:02;;;;;;;2.23;2.03;;;;;;;;;;5087938;28;20259;-67
2023/03/05 05:12:30;;;;;;;4.67;2.50;;;;;;;;;;5087939;28;20212;-67
2023/03/05 05:14:58;;;;;;;6.87;2.03;;;;;;;;;;5085475;28;20290;-66
2023/03/05 05:17:25;;;;;;;2.70;2.23;;;;;;;;;;5082306;28;20762;-67
2023/03/05 05:19:53;;;;;;;3.13;2.37;;;;;;;;;;5084229;28;20201;-67
2023/03/05 05:22:20;;;;;;;4.40;1.97;;;;;;;;;;5077594;28;20390;-68
2023/03/05 05:24:47;;;;;;;4.73;2.17;;;;;;;;;;5086977;28;20359;-67
2023/03/05 05:27:14;;;;;;;4.73;2.37;;;;;;;;;;5087815;28;20347;-68
2023/03/05 05:29:41;;;;;;;7.13;2.30;;;;;;;;;;5087639;28;20238;-67
2023/03/05 05:32:10;;;;;;;3.17;1.90;;;;;;;;;;5087589;28;20254;-68
2023/03/05 05:34:37;;;;;;;1.63;1.50;;;;;;;;;;5087392;28;20227;-67
2023/03/05 05:37:04;;;;;;;2.43;1.80;;;;;;;;;;5086185;28;20306;-67
2023/03/05 05:39:31;;;;;;;5.67;1.90;;;;;;;;;;5084508;28;20198;-68
2023/03/05 05:41:58;;;;;;;2.10;1.93;;;;;;;;;;5080740;28;20214;-68
2023/03/05 05:44:25;;;;;;;1.83;1.13;;;;;;;;;;5088065;28;20216;-67
2023/03/05 05:46:52;;;;;;;2.50;2.00;;;;;;;;;;5084552;28;20213;-68
2023/03/05 05:49:20;;;;;;;2.93;1.80;;;;;;;;;;5088117;28;20220;-68
2023/03/05 05:51:47;;;;;;;1.77;1.50;;;;;;;;;;5087684;28;20235;-67
2023/03/05 05:54:15;;;;;;;3.57;1.97;;;;;;;;;;5087781;28;20258;-69
2023/03/05 05:56:42;;;;;;;1.50;1.40;;;;;;;;;;5087527;28;20233;-67
2023/03/05 05:59:09;;;;;;;6.30;1.97;;;;;;;;;;5087787;28;20257;-69
2023/03/05 06:01:36;;;;;;;1.43;1.33;;;;;;;;;;5087081;28;20205;-68
2023/03/05 06:04:04;;;;;;;1.53;1.43;;;;;;;;;;5087606;28;20240;-67
2023/03/05 06:06:33;;;;;;;4.65;2.20;;;;;;;;;;5045392;28;1195363;-67
2023/03/05 06:09:01;;;;;;;3.77;1.97;;;;;;;;;;5087424;28;20284;-68
2023/03/05 06:11:28;;;;;;;2.53;2.13;;;;;;;;;;5088212;28;20660;-67
2023/03/05 06:13:55;;;;;;;4.00;2.53;;;;;;;;;;5088372;28;20224;-68
2023/03/05 06:16:23;;;;;;;7.13;2.70;;;;;;;;;;5088191;28;20813;-67
2023/03/05 06:18:50;;;;;;;2.30;1.97;;;;;;;;;;5088246;28;20623;-68
2023/03/05 06:21:18;;;;;;;3.47;1.57;;;;;;;;;;5088145;28;20229;-67
2023/03/05 06:23:47;;;;;;;8.37;1.70;;;;;;;;;;5088017;28;20212;-68
2023/03/05 06:26:15;;;;;;;1.20;1.00;;;;;;;;;;5087901;28;20324;-68
2023/03/05 06:28:42;;;;;;;1.47;1.37;;;;;;;;;;5085968;28;20208;-69
2023/03/05 06:31:10;;;;;;;1.73;1.63;;;;;;;;;;5086033;28;20210;-68
2023/03/05 06:33:37;;;;;;;1.60;1.50;;;;;;;;;;5087162;28;20206;-69
2023/03/05 06:36:05;;;;;;;1.77;1.67;;;;;;;;;;5074681;28;20257;-69
2023/03/05 06:38:32;;;;;;;3.90;1.60;;;;;;;;;;5086552;28;20232;-69
2023/03/05 06:41:04;;;;;;;2.07;1.07;;;;;;;;;;5072009;28;20282;-69
2023/03/05 06:43:32;;;;;;;1.77;0.97;;;;;;;;;;5087582;28;20267;-68
2023/03/05 06:46:03;;;;;;;1.60;1.50;;;;;;;;;;5088073;28;20212;-68
2023/03/05 06:48:30;;;;;;;3.43;1.80;;;;;;;;;;5087538;28;20713;-68
2023/03/05 06:50:57;;;;;;;2.83;1.93;;;;;;;;;;5087518;28;20675;-68
2023/03/05 06:53:24;;;;;;;1.90;1.80;;;;;;;;;;5087446;28;20266;-68
2023/03/05 06:55:51;;;;;;;6.10;2.37;;;;;;;;;;5085647;28;20197;-69
2023/03/05 06:58:19;;;;;;;2.43;2.10;;;;;;;;;;5087907;28;20237;-69
2023/03/05 07:00:47;;;;;;;2.20;1.93;;;;;;;;;;5076674;28;20262;-69
2023/03/05 07:03:14;;;;;;;3.83;2.93;;;;;;;;;;5087726;28;20208;-69
2023/03/05 07:05:41;;;;;;;2.97;2.70;;;;;;;;;;5079686;28;20563;-69
2023/03/05 07:08:08;;;;;;;3.23;2.47;;;;;;;;;;5067489;28;20203;-70
2023/03/05 07:10:38;;;;;;;4.60;3.53;;;;;;;;;;5085009;28;20202;-69
2023/03/05 07:13:05;;;;;;;5.00;3.17;;;;;;;;;;5087495;28;20213;-68
2023/03/05 07:15:33;;;;;;;3.50;2.97;;;;;;;;;;5087221;28;20198;-70
2023/03/05 07:18:00;;;;;;;3.73;1.90;;;;;;;;;;5072505;28;20237;-69
2023/03/05 07:20:28;;;;;;;4.50;2.23;;;;;;;;;;5083024;28;20205;-68
2023/03/05 07:22:55;;;;;;;2.80;1.80;;;;;;;;;;5087459;28;20252;-68
2023/03/05 07:25:23;;;;;;;6.03;2.13;;;;;;;;;;5073433;28;20696;-68
2023/03/05 07:27:50;;;;;;;3.17;2.07;;;;;;;;;;5078218;28;20348;-68
2023/03/05 07:30:18;;;;;;;2.47;1.93;;;;;;;;;;5084331;28;20202;-68
2023/03/05 07:32:46;;;;;;;2.80;2.20;;;;;;;;;;5086454;28;20197;-69
2023/03/05 07:35:13;;;;;;;4.97;2.20;;;;;;;;;;5078110;28;20202;-69
2023/03/05 07:37:40;;;;;;;4.90;2.63;;;;;;;;;;5086358;28;20722;-69
2023/03/05 07:40:09;;;;;;;5.70;2.80;;;;;;;;;;5086926;28;20319;-69
2023/03/05 07:42:36;;;;;;;2.70;2.33;;;;;;;;;;5086248;28;20263;-68
2023/03/05 07:45:03;;;;;;;2.57;2.10;;;;;;;;;;5086845;28;20569;-68
2023/03/05 07:47:30;;;;;;;2.33;1.97;;;;;;;;;;5086581;28;20240;-68
2023/03/05 07:49:58;;;;;;;4.37;2.77;;;;;;;;;;5075464;28;20292;-68
2023/03/05 07:52:25;;;;;;;4.20;2.73;;;;;;;;;;5086643;28;20209;-67
2023/03/05 07:54:53;;;;;;;2.50;2.30;;;;;;;;;;5086771;28;20211;-68
2023/03/05 07:57:20;;;;;;;2.63;2.43;;;;;;;;;;5086717;28;20645;-68
2023/03/05 07:59:47;;;;;;;14.13;3.20;;;;;;;;;;5086474;28;20201;-69
2023/03/05 08:02:14;;;;;;;6.43;3.07;;;;;;;;;;5086591;28;20209;-67
2023/03/05 08:04:42;;;;;;;6.67;3.03;;;;;;;;;;5086845;28;20263;-68
2023/03/05 08:07:10;;;;;;;3.70;2.83;;;;;;;;;;5086271;28;20246;-69
2023/03/05 08:09:37;;;;;;;6.93;2.97;;;;;;;;;;5086920;28;20210;-68
2023/03/05 08:12:04;;;;;;;2.83;2.43;;;;;;;;;;5085274;28;20204;-68
2023/03/05 08:14:31;;;;;;;2.97;2.53;;;;;;;;;;5084000;28;20206;-70
2023/03/05 08:16:58;;;;;;;3.03;2.73;;;;;;;;;;5086519;28;20699;-67
2023/03/05 08:19:38;;;;;;;5.87;2.50;;;;;;;;;;5085955;28;20206;-70
2023/03/05 08:22:07;;;;;;;4.10;2.83;;;;;;;;;;5086569;28;20249;-69
2023/03/05 08:27:29;;;;;;;4.20;2.80;;;;;;;;;;5085839;28;20259;-70
2023/03/05 08:29:57;;;;;;;8.70;3.40;;;;;;;;;;5087830;28;20736;-70
2023/03/05 08:32:27;;;;;;;6.17;2.60;;;;;;;;;;5087188;28;20289;-69
2023/03/05 08:34:57;;;;;;;4.07;2.43;;;;;;;;;;5087878;28;20206;-70
2023/03/05 08:37:39;;;;;;;3.83;2.40;;;;;;;;;;5087624;28;20692;-70
2023/03/05 08:40:12;;;;;;;3.43;2.40;;;;;;;;;;5085339;28;20723;-69
2023/03/05 08:42:39;;;;;;;2.63;1.87;;;;;;;;;;5087315;28;20219;-70
2023/03/05 08:45:09;;;;;;;3.57;2.43;;;;;;;;;;5087750;28;20209;-70
2023/03/05 08:47:43;;;;;;;2.50;1.97;;;;;;;;;;5086662;28;20290;-71
2023/03/05 08:50:14;;;;;;;2.00;1.87;;;;;;;;;;5087823;28;20296;-69
2023/03/05 08:52:48;;;;;;;3.07;1.97;;;;;;;;;;5086954;28;20216;-69
2023/03/05 08:55:22;;;;;;;4.23;1.87;;;;;;;;;;5085335;28;20210;-69
2023/03/05 08:57:52;;;;;;;7.00;2.30;;;;;;;;;;5085578;28;20618;-71
2023/03/05 09:00:32;;;;;;;4.23;1.67;;;;;;;;;;5090288;28;20277;-71
2023/03/05 09:02:59;;;;;;;3.07;2.03;;;;;;;;;;5090464;28;20554;-69
2023/03/05 09:05:26;;;;;;;5.07;1.67;;;;;;;;;;5090187;28;20221;-70
2023/03/05 09:07:53;;;;;;;2.40;2.07;;;;;;;;;;5088025;28;20229;-67
2023/03/05 09:10:22;;;;;;;3.90;1.97;;;;;;;;;;5090042;28;20208;-71
2023/03/05 09:12:49;;;;;;;4.57;2.00;;;;;;;;;;5088068;28;20200;-69
2023/03/05 09:15:16;;;;;;;4.20;2.10;;;;;;;;;;5089835;28;20207;-68
2023/03/05 09:17:43;;;;;;;31.00;8.73;;;;;;;;;;5089875;28;20236;-68
2023/03/05 09:20:11;;;;;;;8.90;4.97;;;;;;;;;;5089450;28;20765;-68
2023/03/05 09:22:39;;;;;;;4.70;2.60;;;;;;;;;;5089373;28;20226;-68
2023/03/05 09:25:06;;;;;;;2.70;2.33;;;;;;;;;;5090025;28;20208;-68
2023/03/05 09:27:35;;;;;;;4.50;1.87;;;;;;;;;;5090158;28;20209;-68
2023/03/05 09:30:03;;;;;;;3.83;1.97;;;;;;;;;;5089179;28;20781;-68
2023/03/05 09:32:30;;;;;;;4.53;1.47;;;;;;;;;;5072094;28;20205;-69
2023/03/05 09:34:57;;;;;;;5.00;2.30;;;;;;;;;;5088953;28;20194;-68
2023/03/05 09:37:25;;;;;;;5.70;2.03;;;;;;;;;;5089579;28;20275;-68
2023/03/05 09:39:52;;;;;;;3.90;2.33;;;;;;;;;;5089823;28;20209;-69
2023/03/05 09:42:29;;;;;;;1.97;1.77;;;;;;;;;;5089424;28;20611;-68
2023/03/05 09:45:03;;;;;;;2.00;1.80;;;;;;;;;;5089739;28;20194;-69
2023/03/05 09:47:39;;;;;;;1.73;1.63;;;;;;;;;;5089395;28;20305;-69
2023/03/05 09:50:13;;;;;;;3.77;1.27;;;;;;;;;;5089476;28;20205;-68
2023/03/05 09:52:42;;;;;;;5.13;1.50;;;;;;;;;;5088918;28;20210;-68
2023/03/05 09:55:13;;;;;;;2.07;1.60;;;;;;;;;;5089344;28;20271;-68
2023/03/05 09:57:43;;;;;;;6.13;2.10;;;;;;;;;;5085117;28;20246;-69
2023/03/05 10:00:21;;;;;;;2.13;1.93;;;;;;;;;;5073014;28;20289;-69
2023/03/05 10:02:52;;;;;;;6.77;2.00;;;;;;;;;;5085444;28;20220;-68
2023/03/05 10:05:21;;;;;;;2.40;1.80;;;;;;;;;;5072805;28;20209;-68
2023/03/05 10:07:52;;;;;;;6.90;1.90;;;;;;;;;;5082713;28;20287;-70
2023/03/05 10:10:24;;;;;;;2.70;1.53;;;;;;;;;;5084786;28;20661;-69
2023/03/05 10:12:52;;;;;;;1.87;1.77;;;;;;;;;;5084367;28;20203;-69
2023/03/05 10:15:22;;;;;;;2.60;1.50;;;;;;;;;;5087982;28;20213;-70
2023/03/05 10:17:54;;;;;;;4.80;1.57;;;;;;;;;;5084816;28;20240;-69
2023/03/05 10:20:33;;;;;;;2.63;1.83;;;;;;;;;;5088116;28;20214;-69
2023/03/05 10:23:06;;;;;;;2.70;2.30;;;;;;;;;;5073017;28;20221;-70
2023/03/05 10:25:41;;;;;;;1.83;1.73;;;;;;;;;;5086573;28;20311;-69
2023/03/05 10:28:16;;;;;;;3.27;1.77;;;;;;;;;;5075244;28;20199;-69
2023/03/05 10:30:53;;;;;;;1.10;1.00;;;;;;;;;;5087625;28;20209;-69
2023/03/05 10:33:23;;;;;;;1.83;1.33;;;;;;;;;;5073284;28;20228;-69
2023/03/05 10:35:58;;;;;;;1.90;1.80;;;;;;;;;;5089310;28;20204;-70
2023/03/05 10:38:34;;;;;;;1.23;1.13;;;;;;;;;;5087555;28;20217;-69
2023/03/05 10:41:04;;;;;;;1.90;1.37;;;;;;;;;;5079897;28;20202;-69
2023/03/05 10:43:36;;;;;;;2.33;2.10;;;;;;;;;;5082559;28;20244;-70
2023/03/05 10:46:05;;;;;;;2.23;1.50;;;;;;;;;;5088037;28;20210;-69
2023/03/05 10:48:35;;;;;;;1.80;1.70;;;;;;;;;;5087675;28;20579;-69
2023/03/05 10:51:05;;;;;;;3.17;1.70;;;;;;;;;;5076034;28;20342;-70
2023/03/05 10:53:34;;;;;;;2.13;1.50;;;;;;;;;;5079047;28;20198;-69
2023/03/05 10:56:02;;;;;;;1.97;1.80;;;;;;;;;;5078950;28;20620;-69
2023/03/05 10:58:29;;;;;;;5.67;3.80;;;;;;;;;;5069244;28;20762;-69
2023/03/05 11:01:01;;;;;;;2.57;1.87;;;;;;;;;;5075051;28;20198;-70
2023/03/05 11:03:45;;;;;;;3.03;2.67;;;;;;;;;;5076627;28;20298;-69
2023/03/05 11:06:13;;;;;;;2.87;1.70;;;;;;;;;;5072490;28;20913;-70
2023/03/05 11:08:40;;;;;;;3.70;2.83;;;;;;;;;;5072782;28;20215;-68
2023/03/05 11:11:15;;;;;;;8.87;3.43;;;;;;;;;;5070254;28;20211;-67
2023/03/05 11:13:51;;;;;;;7.90;3.83;;;;;;;;;;5077580;28;20542;-70
2023/03/05 11:16:20;;;;;;;4.40;2.70;;;;;;;;;;5076913;28;20733;-68
2023/03/05 11:18:49;;;;;;;2.13;1.77;;;;;;;;;;5077247;28;20241;-68
2023/03/05 11:21:22;;;;;;;3.30;2.10;;;;;;;;;;5070971;28;20226;-69
2023/03/05 11:24:04;;;;;;;1.43;1.37;;;;;;;;;;5080530;28;20202;-71
2023/03/05 11:26:31;;;;;;;3.43;2.67;;;;;;;;;;5077818;28;20730;-69
2023/03/05 11:28:59;;;;;;;1.73;1.63;;;;;;;;;;5071304;28;20206;-69
2023/03/05 11:31:27;;;;;;;3.50;2.20;;;;;;;;;;5081500;28;20206;-67
2023/03/05 11:33:57;;;;;;;6.13;3.33;;;;;;;;;;5082834;28;20210;-70
2023/03/05 11:36:25;;;;;;;2.53;2.17;;;;;;;;;;5087421;28;20206;-70
2023/03/05 11:38:54;;;;;;;2.67;1.60;;;;;;;;;;5080950;28;20223;-69
2023/03/05 11:41:24;;;;;;;2.57;1.43;;;;;;;;;;5078167;28;20206;-71
2023/03/05 11:43:52;;;;;;;5.03;2.37;;;;;;;;;;5084157;28;20203;-73
2023/03/05 11:46:21;;;;;;;12.00;4.57;;;;;;;;;;5081240;28;20214;-70
2023/03/05 11:48:49;;;;;;;14.43;4.40;;;;;;;;;;5086654;28;20205;-70
2023/03/05 11:51:21;;;;;;;7.80;3.47;;;;;;;;;;5076661;28;20206;-69
2023/03/05 11:53:50;;;;;;;15.00;4.97;;;;;;;;;;5086787;28;20206;-70
2023/03/05 11:56:19;;;;;;;7.67;3.30;;;;;;;;;;5086459;28;20252;-70
2023/03/05 11:58:49;;;;;;;6.80;2.43;;;;;;;;;;5084953;28;20249;-69
2023/03/05 12:01:17;;;;;;;1.60;1.47;;;;;;;;;;5080789;28;20232;-69
2023/03/05 12:03:44;;;;;;;4.53;1.80;;;;;;;;;;5086229;28;20664;-69
2023/03/05 12:06:17;;;;;;;2.67;1.50;;;;;;;;;;5086367;28;20242;-72
2023/03/05 12:08:47;;;;;;;1.90;1.30;;;;;;;;;;5084588;28;20204;-70
2023/03/05 12:11:16;;;;;;;2.67;1.53;;;;;;;;;;5087356;28;20202;-71
2023/03/05 12:13:45;;;;;;;6.67;1.97;;;;;;;;;;5079655;28;20210;-70
2023/03/05 12:16:15;;;;;;;3.77;2.33;;;;;;;;;;5086453;28;20210;-70
2023/03/05 12:18:48;;;;;;;4.63;3.13;;;;;;;;;;5084964;28;20222;-69
2023/03/05 12:21:17;;;;;;;2.77;2.00;;;;;;;;;;5086935;28;20222;-74
2023/03/05 12:23:47;;;;;;;1.93;1.07;;;;;;;;;;5085474;28;20268;-70
2023/03/05 12:26:14;;;;;;;3.43;1.40;;;;;;;;;;5086605;28;20195;-70
2023/03/05 12:28:53;;;;;;;3.07;1.13;;;;;;;;;;5084824;28;20217;-70
2023/03/05 12:31:27;;;;;;;3.17;0.80;;;;;;;;;;5086662;28;20209;-69
2023/03/05 12:33:54;;;;;;;3.27;1.13;;;;;;;;;;5081616;28;20222;-69
2023/03/05 12:36:34;;;;;;;1.73;0.83;;;;;;;;;;5090982;28;20638;-69
2023/03/05 12:39:22;;;;;;;3.73;1.23;;;;;;;;;;5090206;28;20232;-69
2023/03/05 12:41:51;;;;;;;1.10;0.77;;;;;;;;;;5090241;28;20680;-69
2023/03/05 12:44:19;;;;;;;0.80;0.80;;;;;;;;;;5089872;28;20293;-70
2023/03/05 12:46:48;;;;;;;1.83;1.13;;;;;;;;;;5090954;28;20271;-70
2023/03/05 12:49:35;;;;;;;2.13;1.00;;;;;;;;;;5089177;28;20202;-69
2023/03/05 12:52:04;;;;;;;0.87;0.87;;;;;;;;;;5081191;28;20214;-70
2023/03/05 12:54:33;;;;;;;3.60;0.97;;;;;;;;;;5090230;28;20416;-70
2023/03/05 12:57:03;;;;;;;3.47;0.90;;;;;;;;;;5082878;28;20207;-70
2023/03/05 12:59:38;;;;;;;1.07;0.90;;;;;;;;;;5085203;28;20218;-70
2023/03/05 13:02:13;;;;;;;1.17;0.80;;;;;;;;;;5081421;28;20213;-70
2023/03/05 13:04:44;;;;;;;1.03;0.83;;;;;;;;;;5089771;28;20197;-70
2023/03/05 13:07:15;;;;;;;1.13;1.03;;;;;;;;;;5089649;28;20284;-69
2023/03/05 13:09:51;;;;;;;3.17;1.30;;;;;;;;;;5089392;28;20942;-70
2023/03/05 13:12:20;;;;;;;1.00;0.93;;;;;;;;;;5089490;28;20205;-68
2023/03/05 13:14:48;;;;;;;0.90;0.90;;;;;;;;;;5089881;28;20210;-72
2023/03/05 13:17:32;;;;;;;2.30;2.10;;;;;;;;;;5089710;28;20198;-74
2023/03/05 13:20:00;;;;;;;1.47;1.37;;;;;;;;;;5089558;28;20230;-71
2023/03/05 13:22:27;;;;;;;2.10;1.10;;;;;;;;;;5069799;28;20713;-69
2023/03/05 13:25:13;;;;;;;2.57;1.03;;;;;;;;;;5082722;28;20289;-67
2023/03/05 13:27:42;;;;;;;0.83;0.83;;;;;;;;;;5088848;28;20216;-70
2023/03/05 13:30:20;;;;;;;1.70;0.90;;;;;;;;;;5087260;28;20210;-69
2023/03/05 13:32:50;;;;;;;1.70;1.00;;;;;;;;;;5089537;28;20267;-70
2023/03/05 13:35:17;;;;;;;1.37;1.13;;;;;;;;;;5089432;28;20603;-70
2023/03/05 13:37:44;;;;;;;1.87;1.20;;;;;;;;;;5082164;28;20202;-71
2023/03/05 13:40:19;;;;;;;1.47;1.37;;;;;;;;;;5086834;28;20646;-69
2023/03/05 13:42:47;;;;;;;1.50;1.40;;;;;;;;;;5088715;28;20663;-70
2023/03/05 13:45:23;;;;;;;1.70;1.03;;;;;;;;;;5088589;28;20294;-69
2023/03/05 13:47:52;;;;;;;1.93;1.43;;;;;;;;;;5081418;28;20202;-70
2023/03/05 13:50:23;;;;;;;1.53;1.43;;;;;;;;;;5081605;28;20272;-70
2023/03/05 13:52:50;;;;;;;1.50;1.40;;;;;;;;;;5088580;28;20607;-70
2023/03/05 13:55:18;;;;;;;1.17;1.17;;;;;;;;;;5088736;28;20703;-69
2023/03/05 13:57:46;;;;;;;1.77;1.43;;;;;;;;;;5088289;28;20311;-70
2023/03/05 14:00:27;;;;;;;1.40;1.30;;;;;;;;;;5084209;28;20227;-69
2023/03/05 14:02:55;;;;;;;2.10;1.43;;;;;;;;;;5088293;28;20285;-70
2023/03/05 14:05:22;;;;;;;1.00;1.00;;;;;;;;;;5083610;28;20741;-70
2023/03/05 14:08:04;;;;;;;3.43;1.10;;;;;;;;;;5087307;28;20226;-69
2023/03/05 14:10:33;;;;;;;1.63;1.37;;;;;;;;;;5078002;28;20947;-70
2023/03/05 14:13:02;;;;;;;1.73;1.57;;;;;;;;;;5088037;28;20258;-69
2023/03/05 14:15:31;;;;;;;1.07;1.07;;;;;;;;;;5087976;28;20209;-69
2023/03/05 14:18:09;;;;;;;1.20;1.10;;;;;;;;;;5087417;28;20210;-70
2023/03/05 14:20:36;;;;;;;1.60;1.50;;;;;;;;;;5086989;28;20692;-68
2023/03/05 14:23:23;;;;;;;1.47;1.37;;;;;;;;;;5075574;28;20230;-70
2023/03/05 14:25:50;;;;;;;2.90;1.17;;;;;;;;;;5087275;28;20232;-68
2023/03/05 14:28:22;;;;;;;1.50;1.40;;;;;;;;;;5087870;28;20207;-70
2023/03/05 14:30:52;;;;;;;5.03;1.40;;;;;;;;;;5087281;28;20729;-70
2023/03/05 14:33:22;;;;;;;1.37;1.33;;;;;;;;;;5088165;28;20627;-70
2023/03/05 14:35:50;;;;;;;0.93;0.93;;;;;;;;;;5081915;28;20205;-70
2023/03/05 14:38:20;;;;;;;1.57;1.30;;;;;;;;;;5088382;28;20210;-72
2023/03/05 14:40:47;;;;;;;3.03;1.83;;;;;;;;;;5082484;28;20222;-68
2023/03/05 14:43:14;;;;;;;1.53;1.03;;;;;;;;;;5087450;28;20293;-68
2023/03/05 14:45:42;;;;;;;1.37;1.20;;;;;;;;;;5077063;28;20672;-65
2023/03/05 14:48:11;;;;;;;1.13;0.93;;;;;;;;;;5079584;28;20688;-69
2023/03/05 14:50:43;;;;;;;1.00;1.00;;;;;;;;;;5078680;28;20244;-69
2023/03/05 14:53:11;;;;;;;0.90;0.90;;;;;;;;;;5086322;28;20210;-69
2023/03/05 14:55:38;;;;;;;1.80;1.30;;;;;;;;;;5070195;28;20237;-70
2023/03/05 14:58:11;;;;;;;1.67;1.30;;;;;;;;;;5081521;28;20285;-69